Time,TemperatureF,DewpointF,PressureIn,WindDirection,WindDirectionDegrees,WindSpeedMPH,WindSpeedGustMPH,Humidity,HourlyPrecipIn,Conditions,Clouds,dailyrainin,SoftwareType,DateUTC
2013-08-27 00:15:00,78.1,69.9,30.00,South,180,7.3,-999.0,76,-99.99,,,0.00,Acu-Link.com,2013-08-27 05:15:00,
2013-08-27 00:30:00,77.9,69.7,30.00,South,180,5.3,-999.0,76,-99.99,,,0.00,Acu-Link.com,2013-08-27 05:30:00,
2013-08-27 00:45:00,77.7,69.5,30.01,WSW,247,4.2,-999.0,76,-99.99,,,0.00,Acu-Link.com,2013-08-27 05:45:00,
2013-08-27 01:00:00,77.7,69.9,30.00,SSW,202,4.7,-999.0,77,-99.99,,,0.00,Acu-Link.com,2013-08-27 06:00:00,
2013-08-27 01:15:00,77.7,69.9,30.00,South,180,4.7,-999.0,77,-99.99,,,0.00,Acu-Link.com,2013-08-27 06:15:00,
2013-08-27 01:31:00,77.4,69.6,29.99,SW,225,6.3,-999.0,77,-99.99,,,0.00,Acu-Link.com,2013-08-27 06:31:00,
2013-08-27 01:46:00,77.2,69.4,30.00,WNW,292,3.7,-999.0,77,-99.99,,,0.00,Acu-Link.com,2013-08-27 06:46:00,
2013-08-27 02:01:00,76.8,69.4,29.99,SW,225,3.7,-999.0,78,-99.99,,,0.00,Acu-Link.com,2013-08-27 07:01:00,
2013-08-27 02:17:00,76.3,69.3,29.99,South,180,2.7,-999.0,79,-99.99,,,0.00,Acu-Link.com,2013-08-27 07:17:00,
2013-08-27 02:32:00,75.7,69.1,29.99,South,180,3.7,-999.0,80,-99.99,,,0.00,Acu-Link.com,2013-08-27 07:32:00,
2013-08-27 02:47:00,75.4,69.2,29.99,SW,225,2.7,-999.0,81,-99.99,,,0.00,Acu-Link.com,2013-08-27 07:47:00,
2013-08-27 03:02:00,74.8,69.3,29.99,SSE,157,4.7,-999.0,83,-99.99,,,0.00,Acu-Link.com,2013-08-27 08:02:00,
2013-08-27 03:19:00,74.7,69.2,30.00,SSE,157,3.7,-999.0,83,-99.99,,,0.00,Acu-Link.com,2013-08-27 08:19:00,
2013-08-27 03:34:00,74.7,69.2,29.99,South,180,3.2,-999.0,83,-99.99,,,0.00,Acu-Link.com,2013-08-27 08:34:00,
2013-08-27 03:49:00,74.3,69.1,29.99,South,180,3.2,-999.0,84,-99.99,,,0.00,Acu-Link.com,2013-08-27 08:49:00,
2013-08-27 04:04:00,73.8,69.0,29.99,SSW,202,2.7,-999.0,85,-99.99,,,0.00,Acu-Link.com,2013-08-27 09:04:00,
2013-08-27 04:20:00,73.4,68.9,29.99,SSW,202,3.2,-999.0,86,-99.99,,,0.00,Acu-Link.com,2013-08-27 09:20:00,
2013-08-27 04:35:00,73.4,68.9,29.99,WSW,247,2.7,-999.0,86,-99.99,,,0.00,Acu-Link.com,2013-08-27 09:35:00,
2013-08-27 04:50:00,73.4,68.9,29.99,SW,225,3.2,-999.0,86,-99.99,,,0.00,Acu-Link.com,2013-08-27 09:50:00,
2013-08-27 05:05:00,72.9,68.5,29.99,SW,225,2.7,-999.0,86,-99.99,,,0.00,Acu-Link.com,2013-08-27 10:05:00,
2013-08-27 05:20:00,72.5,68.1,29.99,South,180,3.2,-999.0,86,-99.99,,,0.00,Acu-Link.com,2013-08-27 10:20:00,
2013-08-27 05:36:00,72.1,68.0,30.00,SW,225,1.7,-999.0,87,-99.99,,,0.00,Acu-Link.com,2013-08-27 10:36:00,
2013-08-27 05:51:00,72.3,68.2,29.99,South,180,2.2,-999.0,87,-99.99,,,0.00,Acu-Link.com,2013-08-27 10:51:00,
2013-08-27 06:06:00,72.3,68.2,29.99,SSE,157,2.7,-999.0,87,-99.99,,,0.00,Acu-Link.com,2013-08-27 11:06:00,
2013-08-27 06:21:00,72.1,68.0,29.99,SSE,157,3.7,-999.0,87,-99.99,,,0.00,Acu-Link.com,2013-08-27 11:21:00,
2013-08-27 06:36:00,72.0,67.9,30.00,SSW,202,3.2,-999.0,87,-99.99,,,0.00,Acu-Link.com,2013-08-27 11:36:00,
2013-08-27 06:52:00,71.8,68.0,30.00,SSE,157,2.7,-999.0,88,-99.99,,,0.00,Acu-Link.com,2013-08-27 11:52:00,
2013-08-27 07:07:00,72.1,68.0,30.00,SSW,202,4.7,-999.0,87,-99.99,,,0.00,Acu-Link.com,2013-08-27 12:07:00,
2013-08-27 07:22:00,73.9,68.8,30.01,SSW,202,2.7,-999.0,84,-99.99,,,0.00,Acu-Link.com,2013-08-27 12:22:00,
2013-08-27 07:37:00,75.7,69.1,30.01,SSW,202,4.2,-999.0,80,-99.99,,,0.00,Acu-Link.com,2013-08-27 12:37:00,
2013-08-27 07:52:00,77.5,69.7,30.00,SSE,157,3.2,-999.0,77,-99.99,,,0.00,Acu-Link.com,2013-08-27 12:52:00,
2013-08-27 08:08:00,79.0,69.6,30.01,SSW,202,3.2,-999.0,73,-99.99,,,0.00,Acu-Link.com,2013-08-27 13:08:00,
2013-08-27 08:23:00,81.1,69.9,30.00,West,270,2.7,-999.0,69,-99.99,,,0.00,Acu-Link.com,2013-08-27 13:23:00,
2013-08-27 08:38:00,82.6,70.5,30.00,SSW,202,4.2,-999.0,67,-99.99,,,0.00,Acu-Link.com,2013-08-27 13:38:00,
2013-08-27 08:53:00,83.8,69.8,30.00,WSW,247,6.3,-999.0,63,-99.99,,,0.00,Acu-Link.com,2013-08-27 13:53:00,
2013-08-27 09:08:00,84.6,70.6,30.00,West,270,4.2,-999.0,63,-99.99,,,0.00,Acu-Link.com,2013-08-27 14:08:00,
2013-08-27 09:24:00,86.7,71.1,30.00,SSW,202,6.3,-999.0,60,-99.99,,,0.00,Acu-Link.com,2013-08-27 14:24:00,
2013-08-27 09:39:00,86.9,71.3,30.00,SSW,202,4.2,-999.0,60,-99.99,,,0.00,Acu-Link.com,2013-08-27 14:39:00,
2013-08-27 09:54:00,88.2,71.0,29.99,SW,225,3.7,-999.0,57,-99.99,,,0.00,Acu-Link.com,2013-08-27 14:54:00,
2013-08-27 10:10:00,89.6,71.3,30.00,WSW,247,3.7,-999.0,55,-99.99,,,0.00,Acu-Link.com,2013-08-27 15:10:00,
2013-08-27 10:25:00,90.9,70.8,29.99,South,180,5.3,-999.0,52,-99.99,,,0.00,Acu-Link.com,2013-08-27 15:25:00,
2013-08-27 10:40:00,91.8,71.1,30.00,SSW,202,5.8,-999.0,51,-99.99,,,0.00,Acu-Link.com,2013-08-27 15:40:00,
2013-08-27 10:55:00,93.2,71.7,30.00,South,180,4.7,-999.0,50,-99.99,,,0.00,Acu-Link.com,2013-08-27 15:55:00,
2013-08-27 11:10:00,93.9,71.8,30.00,South,180,8.3,-999.0,49,-99.99,,,0.00,Acu-Link.com,2013-08-27 16:10:00,
2013-08-27 11:26:00,95.0,71.6,29.99,SSE,157,4.7,-999.0,47,-99.99,,,0.00,Acu-Link.com,2013-08-27 16:26:00,
2013-08-27 11:41:00,94.6,71.2,30.00,SW,225,5.8,-999.0,47,-99.99,,,0.00,Acu-Link.com,2013-08-27 16:41:00,
2013-08-27 11:56:00,95.7,72.2,30.00,West,270,2.2,-999.0,47,-99.99,,,0.00,Acu-Link.com,2013-08-27 16:56:00,
2013-08-27 12:11:00,97.0,72.1,30.00,SE,135,2.7,-999.0,45,-99.99,,,0.00,Acu-Link.com,2013-08-27 17:11:00,
2013-08-27 12:26:00,96.8,71.9,29.99,SSW,202,3.2,-999.0,45,-99.99,,,0.00,Acu-Link.com,2013-08-27 17:26:00,
2013-08-27 12:42:00,98.4,72.0,29.98,SW,225,4.2,-999.0,43,-99.99,,,0.00,Acu-Link.com,2013-08-27 17:42:00,
2013-08-27 12:57:00,98.1,71.7,29.97,SSW,202,4.2,-999.0,43,-99.99,,,0.00,Acu-Link.com,2013-08-27 17:57:00,
2013-08-27 13:12:00,99.3,72.1,29.97,SW,225,7.3,-999.0,42,-99.99,,,0.00,Acu-Link.com,2013-08-27 18:12:00,
2013-08-27 13:27:00,99.1,71.2,29.97,ESE,112,3.7,-999.0,41,-99.99,,,0.00,Acu-Link.com,2013-08-27 18:27:00,
2013-08-27 13:43:00,99.3,72.8,29.97,SSW,202,6.3,-999.0,43,-99.99,,,0.00,Acu-Link.com,2013-08-27 18:43:00,
2013-08-27 13:58:00,99.0,72.5,29.97,SSE,157,5.8,-999.0,43,-99.99,,,0.00,Acu-Link.com,2013-08-27 18:58:00,
2013-08-27 14:13:00,100.4,72.4,29.96,SSW,202,3.2,-999.0,41,-99.99,,,0.00,Acu-Link.com,2013-08-27 19:13:00,
2013-08-27 14:28:00,100.6,72.5,29.96,South,180,4.7,-999.0,41,-99.99,,,0.00,Acu-Link.com,2013-08-27 19:28:00,
2013-08-27 14:43:00,101.7,72.0,29.95,SW,225,4.2,-999.0,39,-99.99,,,0.00,Acu-Link.com,2013-08-27 19:43:00,
2013-08-27 14:59:00,100.6,71.8,29.95,SSE,157,5.8,-999.0,40,-99.99,,,0.00,Acu-Link.com,2013-08-27 19:59:00,
2013-08-27 15:14:00,99.9,73.3,29.95,South,180,5.3,-999.0,43,-99.99,,,0.00,Acu-Link.com,2013-08-27 20:14:00,
2013-08-27 15:29:00,101.3,73.2,29.94,SW,225,6.8,-999.0,41,-99.99,,,0.00,Acu-Link.com,2013-08-27 20:29:00,
2013-08-27 15:45:00,99.9,74.0,29.94,SSE,157,8.9,-999.0,44,-99.99,,,0.00,Acu-Link.com,2013-08-27 20:45:00,
2013-08-27 16:00:00,99.0,73.2,29.94,South,180,4.7,-999.0,44,-99.99,,,0.00,Acu-Link.com,2013-08-27 21:00:00,
2013-08-27 16:15:00,100.8,74.1,29.94,South,180,5.3,-999.0,43,-99.99,,,0.00,Acu-Link.com,2013-08-27 21:15:00,
2013-08-27 17:01:00,97.5,71.9,29.93,SSW,202,7.3,-999.0,44,-99.99,,,0.00,Acu-Link.com,2013-08-27 22:01:00,
2013-08-27 17:16:00,94.8,70.7,29.94,West,270,3.7,-999.0,46,-99.99,,,0.00,Acu-Link.com,2013-08-27 22:16:00,
2013-08-27 17:31:00,92.7,70.7,29.94,South,180,5.3,-999.0,49,-99.99,,,0.00,Acu-Link.com,2013-08-27 22:31:00,
2013-08-27 17:47:00,92.1,71.3,29.94,South,180,2.7,-999.0,51,-99.99,,,0.00,Acu-Link.com,2013-08-27 22:47:00,
2013-08-27 18:02:00,91.4,71.3,29.94,SSW,202,5.3,-999.0,52,-99.99,,,0.00,Acu-Link.com,2013-08-27 23:02:00,
2013-08-27 18:17:00,90.3,71.4,29.94,South,180,3.2,-999.0,54,-99.99,,,0.00,Acu-Link.com,2013-08-27 23:17:00,
2013-08-27 18:32:00,89.4,71.6,29.93,SSE,157,2.7,-999.0,56,-99.99,,,0.00,Acu-Link.com,2013-08-27 23:32:00,
2013-08-27 18:47:00,88.5,71.3,29.93,South,180,3.7,-999.0,57,-99.99,,,0.00,Acu-Link.com,2013-08-27 23:47:00,
2013-08-27 19:03:00,87.3,71.2,29.92,South,180,3.7,-999.0,59,-99.99,,,0.00,Acu-Link.com,2013-08-28 00:03:00,
2013-08-27 19:18:00,86.2,71.1,29.92,SW,225,4.2,-999.0,61,-99.99,,,0.00,Acu-Link.com,2013-08-28 00:18:00,
2013-08-27 19:33:00,85.1,70.6,29.93,SW,225,2.2,-999.0,62,-99.99,,,0.00,Acu-Link.com,2013-08-28 00:33:00,
2013-08-27 19:49:00,83.7,70.2,29.93,SSW,202,2.7,-999.0,64,-99.99,,,0.00,Acu-Link.com,2013-08-28 00:49:00,
2013-08-27 20:04:00,82.4,69.9,29.93,South,180,3.7,-999.0,66,-99.99,,,0.00,Acu-Link.com,2013-08-28 01:04:00,
2013-08-27 20:19:00,81.5,69.9,29.93,SSW,202,2.7,-999.0,68,-99.99,,,0.00,Acu-Link.com,2013-08-28 01:19:00,
2013-08-27 20:34:00,80.8,69.2,29.93,SSW,202,3.2,-999.0,68,-99.99,,,0.00,Acu-Link.com,2013-08-28 01:34:00,
2013-08-27 20:49:00,80.4,69.3,29.94,SSW,202,3.7,-999.0,69,-99.99,,,0.00,Acu-Link.com,2013-08-28 01:49:00,
2013-08-27 21:35:00,79.3,68.2,29.94,South,180,6.3,-999.0,69,-99.99,,,0.00,Acu-Link.com,2013-08-28 02:35:00,
2013-08-27 21:50:00,79.0,67.9,29.95,SSW,202,4.2,-999.0,69,-99.99,,,0.00,Acu-Link.com,2013-08-28 02:50:00,
2013-08-27 22:05:00,78.3,67.3,29.95,SSW,202,4.2,-999.0,69,-99.99,,,0.00,Acu-Link.com,2013-08-28 03:05:00,
2013-08-27 22:21:00,77.7,66.3,29.95,South,180,4.7,-999.0,68,-99.99,,,0.00,Acu-Link.com,2013-08-28 03:21:00,
2013-08-27 22:36:00,77.4,66.0,29.95,SSE,157,5.3,-999.0,68,-99.99,,,0.00,Acu-Link.com,2013-08-28 03:36:00,
2013-08-27 22:51:00,77.0,65.6,29.95,WSW,247,4.7,-999.0,68,-99.99,,,0.00,Acu-Link.com,2013-08-28 03:51:00,
2013-08-27 23:06:00,76.8,65.4,29.95,South,180,6.8,-999.0,68,-99.99,,,0.00,Acu-Link.com,2013-08-28 04:06:00,
2013-08-27 23:21:00,76.6,65.2,29.95,SSW,202,4.2,-999.0,68,-99.99,,,0.00,Acu-Link.com,2013-08-28 04:21:00,
2013-08-27 23:37:00,76.6,65.2,29.96,ESE,112,3.7,-999.0,68,-99.99,,,0.00,Acu-Link.com,2013-08-28 04:37:00,
2013-08-27 23:52:00,77.0,65.2,29.96,SW,225,5.8,-999.0,67,-99.99,,,0.00,Acu-Link.com,2013-08-28 04:52:00,